Time;durP1;ratioP1;P1;durP2;ratioP2;P2;SDS_P1;SDS_P2;PMS_P1;PMS_P2;Temp;Humidity;BMP_temperature;BMP_pressure;BME280_temperature;BME280_humidity;BME280_pressure;Samples;Min_cycle;Max_cycle;Signal;HPM_P1;HPM_P2
2021/05/09 00:01:33;;;;;;;4.05;3.65;;;8.60;99.90;;;;;;5010764;28;20080;-47
2021/05/09 00:03:59;;;;;;;4.55;3.70;;;8.60;99.90;;;;;;5010483;28;20018;-45
2021/05/09 00:06:24;;;;;;;5.43;3.15;;;8.70;99.90;;;;;;5009503;28;20025;-45
2021/05/09 00:08:51;;;;;;;4.50;3.53;;;8.60;99.90;;;;;;5008722;28;20072;-47
2021/05/09 00:11:17;;;;;;;3.95;3.38;;;8.70;99.90;;;;;;5009690;28;20508;-44
2021/05/09 00:13:43;;;;;;;4.03;3.63;;;8.70;99.90;;;;;;5009680;28;20389;-46
2021/05/09 00:16:09;;;;;;;3.63;3.30;;;8.60;99.90;;;;;;5009615;28;20057;-45
2021/05/09 00:18:35;;;;;;;4.32;3.92;;;8.70;99.90;;;;;;5009619;28;20523;-48
2021/05/09 00:21:01;;;;;;;3.83;3.50;;;8.60;99.90;;;;;;5010023;28;20104;-45
2021/05/09 00:23:27;;;;;;;4.60;3.67;;;8.70;99.90;;;;;;5009923;28;20022;-46
2021/05/09 00:25:52;;;;;;;3.97;3.42;;;8.70;99.90;;;;;;5010072;28;20122;-50
2021/05/09 00:28:18;;;;;;;3.95;3.65;;;8.70;99.90;;;;;;5009857;28;20018;-45
2021/05/09 00:30:44;;;;;;;3.90;3.47;;;8.70;99.90;;;;;;5009014;28;20033;-48
2021/05/09 00:33:10;;;;;;;3.72;3.40;;;8.70;99.90;;;;;;5009162;28;20034;-45
2021/05/09 00:35:35;;;;;;;5.30;3.40;;;8.70;99.90;;;;;;5008182;28;20129;-44
2021/05/09 00:38:01;;;;;;;5.07;3.20;;;8.80;99.90;;;;;;5010210;28;20523;-47
2021/05/09 00:40:27;;;;;;;3.78;2.88;;;8.70;99.90;;;;;;5008756;28;20137;-46
2021/05/09 00:42:56;;;;;;;3.78;3.13;;;8.80;99.90;;;;;;5009304;28;20022;-50
2021/05/09 00:45:22;;;;;;;3.60;3.05;;;8.80;99.90;;;;;;5001924;28;20026;-46
2021/05/09 00:47:53;;;;;;;6.00;3.60;;;8.70;99.90;;;;;;5008394;28;20026;-45
2021/05/09 00:50:19;;;;;;;3.33;3.03;;;8.80;99.90;;;;;;5008170;28;20030;-45
2021/05/09 00:52:47;;;;;;;5.60;3.17;;;8.70;99.90;;;;;;5009546;28;20621;-46
2021/05/09 00:55:13;;;;;;;3.97;3.58;;;8.70;99.90;;;;;;5006704;28;20060;-45
2021/05/09 00:57:42;;;;;;;3.90;3.20;;;8.80;99.90;;;;;;5007247;28;20509;-47
2021/05/09 01:00:10;;;;;;;8.15;3.30;;;8.80;99.90;;;;;;5004102;28;20170;-49
2021/05/09 01:02:38;;;;;;;3.30;3.00;;;8.80;99.90;;;;;;5006221;28;20304;-48
2021/05/09 01:05:04;;;;;;;4.20;3.35;;;8.80;99.90;;;;;;5006912;28;20034;-47
2021/05/09 01:07:31;;;;;;;3.60;3.05;;;8.80;99.90;;;;;;5008697;28;20053;-46
2021/05/09 01:09:59;;;;;;;3.63;2.92;;;8.80;99.90;;;;;;5007122;28;20025;-47
2021/05/09 01:12:25;;;;;;;3.40;2.90;;;8.80;99.90;;;;;;5008507;28;20033;-48
2021/05/09 01:14:51;;;;;;;3.72;3.08;;;8.80;99.90;;;;;;5007814;28;20026;-46
2021/05/09 01:17:16;;;;;;;5.18;3.92;;;8.80;99.90;;;;;;5008972;28;20420;-47
2021/05/09 01:19:42;;;;;;;3.38;3.08;;;8.90;99.90;;;;;;5004068;28;20045;-45
2021/05/09 01:22:09;;;;;;;3.85;3.05;;;8.90;99.90;;;;;;5007361;28;20030;-49
2021/05/09 01:24:35;;;;;;;4.93;3.25;;;8.90;99.90;;;;;;5004476;28;20041;-46
2021/05/09 01:27:02;;;;;;;4.32;3.60;;;8.80;99.90;;;;;;5007131;28;20021;-51
2021/05/09 01:29:28;;;;;;;3.72;3.40;;;8.90;99.90;;;;;;5008743;28;20025;-45
2021/05/09 01:31:54;;;;;;;4.75;2.88;;;8.90;99.90;;;;;;5009010;28;20462;-46
2021/05/09 01:34:20;;;;;;;3.70;3.33;;;8.90;99.90;;;;;;5007634;28;20030;-49
2021/05/09 01:36:46;;;;;;;5.57;3.40;;;8.90;99.90;;;;;;5007387;28;20112;-48
2021/05/09 01:39:11;;;;;;;4.78;3.25;;;8.90;99.90;;;;;;5027788;23;20069;-59
2021/05/09 01:41:37;;;;;;;3.78;3.45;;;8.90;99.90;;;;;;5007361;28;20037;-59
2021/05/09 01:44:03;;;;;;;3.70;3.33;;;8.90;99.90;;;;;;5008469;28;20014;-58
2021/05/09 01:46:28;;;;;;;3.53;3.20;;;8.90;99.90;;;;;;5008595;28;20050;-57
2021/05/09 01:48:54;;;;;;;3.58;3.28;;;8.90;99.90;;;;;;5006908;28;20495;-58
2021/05/09 01:51:20;;;;;;;5.28;3.47;;;8.90;99.90;;;;;;5008204;28;20093;-59
2021/05/09 01:53:47;;;;;;;3.35;3.05;;;8.90;99.90;;;;;;5008690;28;20100;-57
2021/05/09 01:56:14;;;;;;;3.35;2.88;;;8.90;99.90;;;;;;5008016;28;20052;-59
2021/05/09 01:58:40;;;;;;;3.38;3.08;;;9.00;99.90;;;;;;5008216;28;20092;-58
2021/05/09 02:01:05;;;;;;;3.13;2.83;;;9.00;99.90;;;;;;5007236;28;20038;-57
2021/05/09 02:03:31;;;;;;;3.50;3.05;;;9.00;99.90;;;;;;5008511;28;20124;-60
2021/05/09 02:05:57;;;;;;;3.60;2.80;;;9.00;99.90;;;;;;5005826;28;20097;-55
2021/05/09 02:08:22;;;;;;;5.05;3.08;;;9.00;99.90;;;;;;5006374;28;20095;-60
2021/05/09 02:10:49;;;;;;;4.55;3.05;;;9.00;99.90;;;;;;5006060;28;20496;-59
2021/05/09 02:13:14;;;;;;;3.10;2.80;;;9.00;99.90;;;;;;5008370;28;20025;-58
2021/05/09 02:15:40;;;;;;;2.80;2.60;;;9.00;99.90;;;;;;5008912;28;20116;-59
2021/05/09 02:18:06;;;;;;;3.22;2.92;;;9.00;99.90;;;;;;5009051;28;20034;-58
2021/05/09 02:20:31;;;;;;;2.88;2.60;;;9.00;99.90;;;;;;5005398;28;20038;-59
2021/05/09 02:22:57;;;;;;;3.53;3.20;;;9.10;99.90;;;;;;5008378;28;20029;-58
2021/05/09 02:25:22;;;;;;;3.85;3.40;;;9.10;99.90;;;;;;5007685;28;20038;-59
2021/05/09 02:27:48;;;;;;;3.22;2.92;;;9.10;99.90;;;;;;5007729;28;20045;-55
2021/05/09 02:30:14;;;;;;;3.88;2.60;;;9.10;99.90;;;;;;5008383;28;20030;-58
2021/05/09 02:32:40;;;;;;;2.92;2.50;;;9.10;99.90;;;;;;5007122;28;20436;-54
2021/05/09 02:35:06;;;;;;;2.85;2.30;;;9.10;99.90;;;;;;5008587;28;20034;-54
2021/05/09 02:37:32;;;;;;;3.10;2.80;;;9.10;99.90;;;;;;5007969;28;20064;-57
2021/05/09 02:39:57;;;;;;;3.92;2.60;;;9.10;99.90;;;;;;5007618;28;20054;-56
2021/05/09 02:42:23;;;;;;;4.35;3.40;;;9.10;99.90;;;;;;5007106;28;20093;-58
2021/05/09 02:44:49;;;;;;;2.78;2.58;;;9.10;99.90;;;;;;5007243;28;20021;-57
2021/05/09 02:47:27;;;;;;;3.85;3.13;;;9.10;99.90;;;;;;5008355;28;20161;-56
2021/05/09 02:50:00;;;;;;;3.15;2.85;;;9.20;99.90;;;;;;5007536;28;20634;-59
2021/05/09 02:52:27;;;;;;;2.90;2.70;;;9.20;99.90;;;;;;5010433;28;20030;-59
2021/05/09 02:54:53;;;;;;;3.60;2.63;;;9.20;99.90;;;;;;5013019;28;20045;-59
2021/05/09 02:57:19;;;;;;;4.70;3.05;;;9.20;99.90;;;;;;5012230;28;20029;-56
2021/05/09 02:59:45;;;;;;;3.60;2.67;;;9.20;99.90;;;;;;5010034;28;20316;-57
2021/05/09 03:02:11;;;;;;;3.33;3.03;;;9.20;99.90;;;;;;5010931;28;20088;-57
2021/05/09 03:04:36;;;;;;;3.05;2.83;;;9.20;99.90;;;;;;5011991;28;20030;-59
2021/05/09 03:07:02;;;;;;;4.88;3.00;;;9.20;99.90;;;;;;5011078;28;20026;-58
2021/05/09 03:09:28;;;;;;;4.72;2.85;;;9.20;99.90;;;;;;5010969;28;20081;-58
2021/05/09 03:11:54;;;;;;;3.47;2.55;;;9.20;99.90;;;;;;5009577;28;20096;-54
2021/05/09 03:14:19;;;;;;;3.70;3.30;;;9.20;99.90;;;;;;5010009;28;20630;-56
2021/05/09 03:16:45;;;;;;;3.72;2.70;;;9.20;99.90;;;;;;5018985;28;20033;-56
2021/05/09 03:19:11;;;;;;;3.25;2.95;;;9.20;99.90;;;;;;5011981;28;20022;-57
2021/05/09 03:21:36;;;;;;;3.22;2.92;;;9.20;99.90;;;;;;5010439;28;20029;-57
2021/05/09 03:24:02;;;;;;;3.38;2.90;;;9.20;99.90;;;;;;5011291;28;20026;-56
2021/05/09 03:26:28;;;;;;;3.40;3.08;;;9.20;99.90;;;;;;5010596;28;20022;-57
2021/05/09 03:28:53;;;;;;;3.08;2.78;;;9.20;99.90;;;;;;5009895;28;20026;-56
2021/05/09 03:31:19;;;;;;;3.20;2.90;;;9.30;99.90;;;;;;5009614;28;20030;-57
2021/05/09 03:33:45;;;;;;;3.08;2.70;;;9.30;99.90;;;;;;5010979;28;20029;-57
2021/05/09 03:36:10;;;;;;;5.07;2.88;;;9.30;99.90;;;;;;5011606;28;20033;-59
2021/05/09 03:38:36;;;;;;;3.15;2.75;;;9.30;99.90;;;;;;5011722;28;20076;-55
2021/05/09 03:41:01;;;;;;;3.10;2.80;;;9.30;99.90;;;;;;5009952;28;20038;-58
2021/05/09 03:43:27;;;;;;;2.95;2.50;;;9.30;99.90;;;;;;5009756;28;20029;-56
2021/05/09 03:45:53;;;;;;;3.17;2.45;;;9.30;99.90;;;;;;5011493;28;20096;-59
2021/05/09 03:48:18;;;;;;;4.10;3.03;;;9.30;99.90;;;;;;5011279;28;20064;-56
2021/05/09 03:50:44;;;;;;;3.63;3.00;;;9.30;99.90;;;;;;5010015;28;20380;-60
2021/05/09 03:53:10;;;;;;;3.38;2.28;;;9.40;99.90;;;;;;5009881;28;20447;-55
2021/05/09 03:55:35;;;;;;;5.85;2.97;;;9.40;99.90;;;;;;5009687;28;20489;-59
2021/05/09 03:58:01;;;;;;;3.60;2.78;;;9.40;99.90;;;;;;5009373;28;20034;-56
2021/05/09 04:00:27;;;;;;;4.22;2.40;;;9.50;99.90;;;;;;5010347;28;20026;-57
2021/05/09 04:02:52;;;;;;;2.83;2.63;;;9.50;99.90;;;;;;5009768;28;20041;-56
2021/05/09 04:05:18;;;;;;;2.78;2.58;;;9.50;99.90;;;;;;5010425;28;20357;-55
2021/05/09 04:07:43;;;;;;;3.28;2.20;;;9.50;99.90;;;;;;5011244;28;20029;-59
2021/05/09 04:10:09;;;;;;;3.00;2.75;;;9.50;99.90;;;;;;5010123;28;20034;-57
2021/05/09 04:12:35;;;;;;;3.25;2.35;;;9.50;99.90;;;;;;5010397;28;20108;-55
2021/05/09 04:15:01;;;;;;;4.07;2.50;;;9.60;99.90;;;;;;5009083;28;20157;-58
2021/05/09 04:17:26;;;;;;;6.13;3.20;;;9.60;99.90;;;;;;5009715;28;20041;-57
2021/05/09 04:19:52;;;;;;;4.30;3.15;;;9.60;99.90;;;;;;5008520;28;20030;-57
2021/05/09 04:22:17;;;;;;;3.42;2.50;;;9.60;99.90;;;;;;5010908;28;20030;-57
2021/05/09 04:24:43;;;;;;;4.50;2.65;;;9.70;99.90;;;;;;5009498;28;20014;-56
2021/05/09 04:27:09;;;;;;;4.63;2.90;;;9.70;99.90;;;;;;5008379;28;20075;-56
2021/05/09 04:29:34;;;;;;;3.13;2.50;;;9.70;99.90;;;;;;5009288;28;20116;-57
2021/05/09 04:32:00;;;;;;;5.40;2.42;;;9.80;99.90;;;;;;5010246;28;20022;-58
2021/05/09 04:34:26;;;;;;;2.95;2.50;;;9.90;99.90;;;;;;5010054;28;21005;-57
2021/05/09 04:36:51;;;;;;;5.40;2.75;;;9.90;99.90;;;;;;5008649;28;20025;-58
2021/05/09 04:39:20;;;;;;;3.10;2.33;;;10.00;99.90;;;;;;5009448;28;20130;-58
2021/05/09 04:41:45;;;;;;;4.22;3.13;;;10.00;99.90;;;;;;5009032;28;20040;-55
2021/05/09 04:44:11;;;;;;;2.80;2.60;;;10.00;99.90;;;;;;5009279;28;20026;-55
2021/05/09 04:46:37;;;;;;;3.55;2.33;;;10.10;99.90;;;;;;5008217;28;20014;-58
2021/05/09 04:49:02;;;;;;;3.95;2.25;;;10.10;99.90;;;;;;5008311;28;20021;-59
2021/05/09 04:51:28;;;;;;;2.90;2.60;;;10.20;99.90;;;;;;5008755;28;20030;-59
2021/05/09 04:53:53;;;;;;;3.17;2.10;;;10.30;99.90;;;;;;5008248;28;20097;-58
2021/05/09 04:56:19;;;;;;;3.15;2.38;;;10.30;99.90;;;;;;5009684;28;20033;-59
2021/05/09 04:58:45;;;;;;;4.13;2.20;;;10.40;99.90;;;;;;5007867;28;20026;-57
2021/05/09 05:01:12;;;;;;;3.13;2.50;;;10.40;99.90;;;;;;5007736;28;20021;-58
2021/05/09 05:03:38;;;;;;;2.50;2.30;;;10.50;99.90;;;;;;5009346;28;20068;-57
2021/05/09 05:06:04;;;;;;;2.90;2.28;;;10.60;99.90;;;;;;5009415;28;20021;-58
2021/05/09 05:08:32;;;;;;;2.30;2.10;;;10.70;99.90;;;;;;5008864;28;20030;-57
2021/05/09 05:10:58;;;;;;;6.30;2.63;;;10.80;99.90;;;;;;5006128;28;20026;-58
2021/05/09 05:13:33;;;;;;;2.92;2.60;;;10.90;99.90;;;;;;5016069;28;20018;-55
2021/05/09 05:16:04;;;;;;;3.00;2.70;;;11.00;99.90;;;;;;5008496;28;20018;-56
2021/05/09 05:18:29;;;;;;;7.10;3.05;;;11.00;99.90;;;;;;5008448;28;20037;-60
2021/05/09 05:21:01;;;;;;;2.85;2.63;;;11.10;99.90;;;;;;5009068;28;20488;-58
2021/05/09 05:23:28;;;;;;;3.92;2.60;;;11.10;99.90;;;;;;5009019;28;20022;-58
2021/05/09 05:25:54;;;;;;;2.42;2.15;;;11.10;99.90;;;;;;5008773;28;20022;-58
2021/05/09 05:28:20;;;;;;;5.45;2.17;;;11.20;99.90;;;;;;5007179;28;20014;-54
2021/05/09 05:30:46;;;;;;;2.75;2.20;;;11.20;99.90;;;;;;5009120;28;20076;-58
2021/05/09 05:33:23;;;;;;;3.03;2.70;;;11.20;99.90;;;;;;5008731;28;20034;-59
2021/05/09 05:35:49;;;;;;;2.28;2.08;;;11.30;99.90;;;;;;5008849;28;20037;-59
2021/05/09 05:38:14;;;;;;;2.78;2.40;;;11.30;99.90;;;;;;5007578;28;20030;-61
2021/05/09 05:40:40;;;;;;;2.53;2.30;;;11.30;99.90;;;;;;5006345;28;20080;-59
2021/05/09 05:43:05;;;;;;;2.05;1.95;;;11.40;99.90;;;;;;5008402;28;20029;-60
2021/05/09 05:45:31;;;;;;;2.55;2.22;;;11.40;99.90;;;;;;5008907;28;20018;-63
2021/05/09 05:47:57;;;;;;;3.13;2.30;;;11.50;99.90;;;;;;5009154;28;20032;-60
2021/05/09 05:50:22;;;;;;;4.07;2.55;;;11.60;99.90;;;;;;5005904;28;20112;-58
2021/05/09 05:52:48;;;;;;;2.88;2.42;;;11.60;99.90;;;;;;5008498;28;20109;-59
2021/05/09 05:55:13;;;;;;;2.47;2.15;;;11.70;99.90;;;;;;5008302;28;20416;-60
2021/05/09 05:57:39;;;;;;;2.28;2.08;;;11.80;99.90;;;;;;5007321;28;20041;-58
2021/05/09 06:00:05;;;;;;;2.38;2.00;;;11.90;99.90;;;;;;5005894;28;20022;-60
2021/05/09 06:02:31;;;;;;;2.00;1.90;;;12.00;99.90;;;;;;5008346;28;20172;-59
2021/05/09 06:04:56;;;;;;;2.70;2.00;;;12.10;99.90;;;;;;5008972;28;20104;-61
2021/05/09 06:07:22;;;;;;;2.42;2.22;;;12.30;99.90;;;;;;5008268;28;20018;-61
2021/05/09 06:09:48;;;;;;;3.38;1.95;;;12.50;99.90;;;;;;5005883;28;20099;-59
2021/05/09 06:12:13;;;;;;;2.25;2.03;;;12.70;99.90;;;;;;5008553;28;20026;-61
2021/05/09 06:14:39;;;;;;;1.92;1.73;;;12.90;99.90;;;;;;5005243;28;20022;-60
2021/05/09 06:17:04;;;;;;;2.35;2.15;;;13.10;99.90;;;;;;5007109;28;20034;-60
2021/05/09 06:19:30;;;;;;;3.75;2.03;;;13.30;99.90;;;;;;5008272;28;20033;-61
2021/05/09 06:21:55;;;;;;;3.03;1.80;;;13.60;99.90;;;;;;5008881;28;20105;-61
2021/05/09 06:24:21;;;;;;;2.75;2.10;;;13.80;99.90;;;;;;5009258;28;20076;-61
2021/05/09 06:26:49;;;;;;;2.53;2.03;;;14.00;99.90;;;;;;5006736;28;20522;-60
2021/05/09 06:29:14;;;;;;;3.03;1.70;;;14.20;99.90;;;;;;5007380;28;20021;-62
2021/05/09 06:31:40;;;;;;;2.13;1.67;;;14.40;99.90;;;;;;5007631;28;20568;-59
2021/05/09 06:34:07;;;;;;;2.03;1.70;;;14.60;99.90;;;;;;5005352;28;20037;-60
2021/05/09 06:36:32;;;;;;;2.97;2.03;;;14.80;99.90;;;;;;5007419;28;20636;-60
2021/05/09 06:38:58;;;;;;;2.97;1.70;;;15.00;99.90;;;;;;5007572;28;20034;-60
2021/05/09 06:41:23;;;;;;;2.10;1.77;;;15.20;99.90;;;;;;5005016;28;20037;-61
2021/05/09 06:43:54;;;;;;;2.00;1.80;;;15.40;99.90;;;;;;5004162;28;20022;-61
2021/05/09 06:46:20;;;;;;;2.22;1.92;;;15.60;99.90;;;;;;5007754;28;20504;-59
2021/05/09 06:48:45;;;;;;;2.78;1.95;;;15.90;99.90;;;;;;5007725;28;20105;-62
2021/05/09 06:51:11;;;;;;;1.77;1.67;;;16.10;99.90;;;;;;5007124;28;20619;-61
2021/05/09 06:53:36;;;;;;;2.55;1.85;;;16.40;99.90;;;;;;5006377;28;20037;-61
2021/05/09 06:56:02;;;;;;;2.92;1.85;;;16.60;99.90;;;;;;5005972;28;20030;-59
2021/05/09 06:58:28;;;;;;;3.20;1.80;;;16.80;99.90;;;;;;5007100;28;20069;-61
2021/05/09 07:00:53;;;;;;;1.88;1.77;;;17.00;99.90;;;;;;5007622;28;20030;-61
2021/05/09 07:03:19;;;;;;;3.55;2.67;;;17.20;99.90;;;;;;5007671;28;20061;-62
2021/05/09 07:05:45;;;;;;;2.25;1.48;;;17.40;99.90;;;;;;5005307;28;20029;-62
2021/05/09 07:08:10;;;;;;;1.70;1.60;;;17.60;99.90;;;;;;5008128;28;20049;-61
2021/05/09 07:10:36;;;;;;;1.80;1.67;;;17.80;99.90;;;;;;5006999;28;21056;-60
2021/05/09 07:13:03;;;;;;;1.88;1.70;;;17.90;99.90;;;;;;5007734;28;20117;-63
2021/05/09 07:15:33;;;;;;;1.77;1.63;;;18.00;99.90;;;;;;5007696;28;20073;-62
2021/05/09 07:18:12;;;;;;;1.73;1.55;;;18.10;99.90;;;;;;5005634;28;20030;-62
2021/05/09 07:20:41;;;;;;;2.33;1.90;;;18.10;99.90;;;;;;5006070;28;20030;-62
2021/05/09 07:23:08;;;;;;;2.00;1.75;;;18.30;99.90;;;;;;5005973;28;20064;-61
2021/05/09 07:25:33;;;;;;;1.65;1.52;;;18.50;99.90;;;;;;5006385;28;20026;-61
2021/05/09 07:28:09;;;;;;;2.50;1.88;;;18.70;99.90;;;;;;5005071;28;20443;-62
2021/05/09 07:30:35;;;;;;;1.90;1.70;;;18.90;99.90;;;;;;5007068;28;20022;-61
2021/05/09 07:33:01;;;;;;;1.98;1.77;;;19.10;99.90;;;;;;5007003;28;20037;-60
2021/05/09 07:35:27;;;;;;;1.40;1.13;;;19.30;99.90;;;;;;5007284;28;20033;-60
2021/05/09 07:37:53;;;;;;;3.08;1.83;;;19.50;99.90;;;;;;5005203;28;20401;-62
2021/05/09 07:40:20;;;;;;;5.00;1.95;;;19.80;99.90;;;;;;5021634;23;20035;-49
2021/05/09 07:42:46;;;;;;;2.47;1.48;;;20.00;99.90;;;;;;4998760;28;20022;-48
2021/05/09 07:45:23;;;;;;;5.05;1.75;;;20.20;99.90;;;;;;5001588;28;20144;-50
2021/05/09 07:47:49;;;;;;;2.10;1.60;;;20.30;99.90;;;;;;5001505;28;20034;-48
2021/05/09 07:50:16;;;;;;;1.70;1.35;;;20.40;99.90;;;;;;4999680;28;20680;-52
2021/05/09 07:52:46;;;;;;;1.35;1.33;;;20.60;99.90;;;;;;5001220;28;20106;-48
2021/05/09 07:55:13;;;;;;;2.42;1.60;;;20.80;99.90;;;;;;5001208;28;20650;-52
2021/05/09 07:57:39;;;;;;;2.65;1.48;;;20.90;99.90;;;;;;4999937;28;20026;-52
2021/05/09 08:00:11;;;;;;;1.70;1.60;;;21.10;99.90;;;;;;5000736;28;20527;-49
2021/05/09 08:02:37;;;;;;;1.58;1.25;;;21.20;99.90;;;;;;4999955;28;20611;-50
2021/05/09 08:05:04;;;;;;;4.50;1.20;;;21.30;99.90;;;;;;4999931;28;20039;-49
2021/05/09 08:07:29;;;;;;;1.73;1.40;;;21.40;99.90;;;;;;5001021;28;20022;-50
2021/05/09 08:09:55;;;;;;;2.40;1.55;;;21.50;99.90;;;;;;5003194;28;20045;-49
2021/05/09 08:12:20;;;;;;;2.50;1.77;;;21.70;99.90;;;;;;5003922;28;20093;-51
2021/05/09 08:14:46;;;;;;;9.20;1.83;;;21.90;98.70;;;;;;5004320;28;20029;-50
2021/05/09 08:17:12;;;;;;;2.92;2.10;;;22.00;99.70;;;;;;5003491;28;20017;-48
2021/05/09 08:19:37;;;;;;;1.90;1.58;;;22.20;97.10;;;;;;5003763;28;20033;-48
2021/05/09 08:22:03;;;;;;;1.90;1.20;;;22.30;97.90;;;;;;5000766;28;20038;-46
2021/05/09 08:24:32;;;;;;;3.75;1.52;;;22.30;98.00;;;;;;5001438;28;20018;-53
2021/05/09 08:26:58;;;;;;;2.25;1.83;;;22.40;96.60;;;;;;5000254;28;20474;-47
2021/05/09 08:29:24;;;;;;;2.40;1.17;;;22.50;94.10;;;;;;4999372;28;20022;-52
2021/05/09 08:31:50;;;;;;;2.60;1.40;;;22.70;93.90;;;;;;4999586;28;20101;-48
2021/05/09 08:34:16;;;;;;;1.52;1.30;;;22.80;94.60;;;;;;5001363;28;20485;-49
2021/05/09 08:36:42;;;;;;;2.58;1.52;;;22.90;85.00;;;;;;5000422;28;20030;-47
2021/05/09 08:39:07;;;;;;;1.55;1.45;;;23.00;94.70;;;;;;5000786;28;20034;-50
2021/05/09 08:41:39;;;;;;;1.63;1.30;;;23.00;91.80;;;;;;4999748;28;20531;-48
2021/05/09 08:44:08;;;;;;;1.63;1.10;;;23.10;95.70;;;;;;5000075;28;20029;-47
2021/05/09 08:46:34;;;;;;;2.70;1.55;;;23.10;93.80;;;;;;5000816;28;20080;-51
2021/05/09 08:49:01;;;;;;;4.13;1.85;;;23.20;93.30;;;;;;4999912;28;20022;-48
2021/05/09 08:51:28;;;;;;;2.53;1.55;;;23.30;89.90;;;;;;5001652;28;20026;-47
2021/05/09 08:53:57;;;;;;;2.15;1.60;;;23.40;93.30;;;;;;4997744;28;20022;-52
2021/05/09 08:56:24;;;;;;;4.30;1.50;;;23.60;90.90;;;;;;5002388;28;20458;-53
2021/05/09 08:58:50;;;;;;;1.85;1.30;;;23.70;88.90;;;;;;5000230;28;20021;-51
2021/05/09 09:01:16;;;;;;;5.55;1.67;;;23.80;90.50;;;;;;5000182;28;20027;-51
2021/05/09 09:03:42;;;;;;;2.67;1.20;;;23.90;91.40;;;;;;5001002;28;20030;-50
2021/05/09 09:06:12;;;;;;;3.90;1.65;;;23.90;82.30;;;;;;4999432;28;20035;-47
2021/05/09 09:08:51;;;;;;;2.17;1.27;;;23.90;90.90;;;;;;5000825;28;20801;-48
2021/05/09 09:11:27;;;;;;;3.20;1.30;;;24.00;87.80;;;;;;5001889;28;20034;-48
2021/05/09 09:14:12;;;;;;;2.20;1.20;;;24.00;82.50;;;;;;5001639;28;20034;-50
2021/05/09 09:16:39;;;;;;;2.88;1.23;;;24.10;84.80;;;;;;4999728;28;20521;-49
2021/05/09 09:19:09;;;;;;;1.98;1.40;;;24.20;90.40;;;;;;5000781;28;20041;-47
2021/05/09 09:21:36;;;;;;;2.38;1.77;;;24.40;78.70;;;;;;5000518;28;20031;-49
2021/05/09 09:24:07;;;;;;;2.65;1.13;;;24.40;80.90;;;;;;4999840;28;20076;-46
2021/05/09 09:26:48;;;;;;;2.92;1.40;;;24.50;84.40;;;;;;5001811;28;20420;-51
2021/05/09 09:29:23;;;;;;;1.33;1.23;;;24.60;78.80;;;;;;5001211;28;20510;-48
2021/05/09 09:32:10;;;;;;;2.60;1.40;;;24.80;77.20;;;;;;5000491;28;20022;-48
2021/05/09 09:34:38;;;;;;;1.77;1.45;;;24.90;81.50;;;;;;4999825;28;20576;-48
2021/05/09 09:37:05;;;;;;;3.05;1.50;;;25.10;80.10;;;;;;4995593;28;20110;-48
2021/05/09 09:39:51;;;;;;;2.10;1.27;;;25.10;77.90;;;;;;4999699;28;20044;-50
2021/05/09 09:42:40;;;;;;;2.47;1.63;;;25.10;72.00;;;;;;4996078;28;20396;-49
2021/05/09 09:45:16;;;;;;;1.27;1.17;;;25.20;69.30;;;;;;5000200;28;20088;-48
2021/05/09 09:48:01;;;;;;;2.17;1.13;;;25.20;72.20;;;;;;4999832;28;20025;-50
2021/05/09 09:50:50;;;;;;;1.65;1.40;;;25.30;72.90;;;;;;4997001;28;20034;-53
2021/05/09 09:53:33;;;;;;;1.33;1.13;;;25.30;72.00;;;;;;4995770;28;20072;-51
2021/05/09 09:56:03;;;;;;;2.58;1.45;;;25.30;72.40;;;;;;4999481;28;20112;-47
2021/05/09 09:58:58;;;;;;;3.28;1.50;;;25.40;70.10;;;;;;5000975;28;20025;-49
2021/05/09 10:01:31;;;;;;;2.92;1.77;;;25.40;69.10;;;;;;4997479;28;20393;-47
2021/05/09 10:04:00;;;;;;;4.65;1.63;;;25.40;66.90;;;;;;5000390;28;20034;-49
2021/05/09 10:06:27;;;;;;;1.70;1.30;;;25.50;69.40;;;;;;4999842;28;20111;-48
2021/05/09 10:08:53;;;;;;;2.28;1.15;;;25.50;66.80;;;;;;5001056;28;20018;-51
2021/05/09 10:11:20;;;;;;;1.33;1.10;;;25.50;66.90;;;;;;4999076;28;20030;-54
2021/05/09 10:13:47;;;;;;;1.77;1.40;;;25.50;63.90;;;;;;4999748;28;20149;-47
2021/05/09 10:16:14;;;;;;;1.42;1.25;;;25.50;69.10;;;;;;4998496;28;20042;-52
2021/05/09 10:18:45;;;;;;;3.08;1.90;;;25.50;63.00;;;;;;4999318;28;20028;-46
2021/05/09 10:21:12;;;;;;;2.78;1.85;;;25.50;66.30;;;;;;4998415;28;20512;-47
2021/05/09 10:24:18;;;;;;;2.67;1.48;;;25.70;69.10;;;;;;4999022;28;20100;-52
2021/05/09 10:26:45;;;;;;;1.60;1.40;;;25.70;63.50;;;;;;4998959;28;20057;-47
2021/05/09 10:32:21;;;;;;;3.58;1.35;;;26.00;64.50;;;;;;4995648;28;20404;-48
2021/05/09 10:34:59;;;;;;;2.85;1.70;;;26.10;62.80;;;;;;4999466;28;20026;-48
2021/05/09 10:40:21;;;;;;;1.55;1.25;;;26.10;65.10;;;;;;4999184;28;20441;-48
2021/05/09 10:42:48;;;;;;;2.90;1.40;;;26.20;66.60;;;;;;4998353;28;20060;-48
2021/05/09 10:45:33;;;;;;;3.42;1.23;;;26.10;63.80;;;;;;4998381;28;20034;-48
2021/05/09 10:48:18;;;;;;;2.22;1.20;;;26.20;62.50;;;;;;4999859;28;20015;-51
2021/05/09 10:50:46;;;;;;;2.92;1.23;;;26.20;63.50;;;;;;4999365;28;20408;-53
2021/05/09 10:53:36;;;;;;;1.45;1.17;;;26.10;59.70;;;;;;5001049;28;20033;-46
2021/05/09 10:56:27;;;;;;;3.10;1.40;;;26.10;64.00;;;;;;4999608;28;20036;-51
2021/05/09 10:58:54;;;;;;;2.35;1.40;;;26.10;62.20;;;;;;4997713;28;20026;-53
2021/05/09 11:01:34;;;;;;;1.13;1.00;;;26.20;62.60;;;;;;4999287;28;20034;-50
2021/05/09 11:04:16;;;;;;;2.58;1.35;;;26.30;62.50;;;;;;4998454;28;20014;-53
2021/05/09 11:06:48;;;;;;;3.25;1.10;;;26.40;63.00;;;;;;5000134;28;20092;-49
2021/05/09 11:09:22;;;;;;;1.65;1.30;;;26.60;64.10;;;;;;4997960;28;20108;-53
2021/05/09 11:11:47;;;;;;;1.85;1.40;;;26.60;61.90;;;;;;4997952;28;20526;-50
2021/05/09 11:14:17;;;;;;;1.15;1.05;;;26.80;62.00;;;;;;4999260;28;20034;-52
2021/05/09 11:17:04;;;;;;;1.95;1.30;;;26.80;59.80;;;;;;5003375;28;20033;-53
2021/05/09 11:19:45;;;;;;;2.55;1.40;;;26.90;57.90;;;;;;5004460;28;20022;-47
2021/05/09 11:22:11;;;;;;;2.42;1.45;;;27.10;60.50;;;;;;5003803;28;20025;-48
2021/05/09 11:24:39;;;;;;;2.78;1.42;;;27.30;59.10;;;;;;5002686;28;20058;-53
2021/05/09 11:27:10;;;;;;;1.60;1.20;;;27.30;58.50;;;;;;5001961;28;20025;-50
2021/05/09 11:29:39;;;;;;;1.30;1.20;;;27.20;55.30;;;;;;4999910;28;20042;-50
2021/05/09 11:32:06;;;;;;;1.40;1.30;;;27.30;59.70;;;;;;5001487;28;20127;-50
2021/05/09 11:34:32;;;;;;;1.50;0.95;;;27.40;57.70;;;;;;5001613;28;20026;-49
2021/05/09 11:36:58;;;;;;;2.17;1.00;;;27.50;56.80;;;;;;4999117;28;20137;-49
2021/05/09 11:39:30;;;;;;;1.50;1.00;;;27.70;56.10;;;;;;5000047;28;20547;-47
2021/05/09 11:41:55;;;;;;;2.17;1.23;;;27.70;55.40;;;;;;5000625;28;20507;-51
2021/05/09 11:44:26;;;;;;;2.00;1.25;;;27.70;54.40;;;;;;5000247;28;20034;-48
2021/05/09 11:46:53;;;;;;;2.08;1.00;;;27.60;53.30;;;;;;5000281;28;20030;-50
2021/05/09 11:49:20;;;;;;;1.33;1.23;;;27.70;53.10;;;;;;4999954;28;20022;-52
2021/05/09 11:52:20;;;;;;;2.88;1.48;;;27.70;52.50;;;;;;4999681;28;20590;-48
2021/05/09 11:54:59;;;;;;;1.48;1.25;;;27.60;54.20;;;;;;5001716;28;20439;-47
2021/05/09 11:57:27;;;;;;;1.38;1.00;;;27.80;52.00;;;;;;5001047;28;20434;-52
2021/05/09 12:00:00;;;;;;;2.38;1.13;;;27.70;54.70;;;;;;5000253;28;20022;-48
2021/05/09 12:02:30;;;;;;;3.10;1.27;;;27.80;53.80;;;;;;5001615;28;20408;-53
2021/05/09 12:05:09;;;;;;;1.50;1.20;;;27.90;54.90;;;;;;5000018;28;20505;-49
2021/05/09 12:07:49;;;;;;;1.35;1.25;;;28.00;52.10;;;;;;5000397;28;20842;-50
2021/05/09 12:10:16;;;;;;;3.55;1.60;;;28.00;52.20;;;;;;4999790;28;20397;-53
2021/05/09 12:12:43;;;;;;;1.40;1.10;;;28.10;51.80;;;;;;4999911;28;20026;-48
2021/05/09 12:15:11;;;;;;;2.22;1.60;;;28.10;52.60;;;;;;5001028;28;20432;-48
2021/05/09 12:17:52;;;;;;;1.45;1.17;;;28.20;52.10;;;;;;5000741;28;20103;-50
2021/05/09 12:20:29;;;;;;;1.55;1.20;;;28.30;52.40;;;;;;5000147;28;20373;-52
2021/05/09 12:23:05;;;;;;;3.00;0.90;;;28.40;52.40;;;;;;5000540;28;20017;-50
2021/05/09 12:25:42;;;;;;;1.20;1.02;;;28.50;52.40;;;;;;5000185;28;20050;-53
2021/05/09 12:28:16;;;;;;;2.03;1.13;;;28.60;51.30;;;;;;5000372;28;20617;-50
2021/05/09 12:30:43;;;;;;;3.47;1.30;;;28.70;49.70;;;;;;5000225;28;20034;-50
2021/05/09 12:33:09;;;;;;;1.38;1.27;;;28.70;51.30;;;;;;5001372;28;20682;-48
2021/05/09 12:35:44;;;;;;;1.65;1.10;;;28.70;51.80;;;;;;5001424;28;20062;-52
2021/05/09 12:38:10;;;;;;;2.88;1.30;;;28.70;50.00;;;;;;5000767;28;20421;-48
2021/05/09 12:40:37;;;;;;;1.77;1.38;;;28.70;48.50;;;;;;5000289;28;20065;-48
2021/05/09 12:43:10;;;;;;;1.15;0.90;;;28.60;48.60;;;;;;5001338;28;20076;-48
2021/05/09 12:45:37;;;;;;;1.80;1.00;;;28.80;51.00;;;;;;5001137;28;20019;-46
2021/05/09 12:48:16;;;;;;;2.38;1.42;;;28.70;50.20;;;;;;5000861;28;20021;-48
2021/05/09 12:50:46;;;;;;;1.38;1.00;;;28.60;52.00;;;;;;5000591;28;20113;-49
2021/05/09 12:53:12;;;;;;;1.02;0.90;;;28.70;53.30;;;;;;5000743;28;20079;-47
2021/05/09 12:55:37;;;;;;;4.70;1.00;;;28.80;50.10;;;;;;5000690;28;20034;-49
2021/05/09 12:58:14;;;;;;;1.35;1.08;;;28.90;49.00;;;;;;5001111;28;20026;-48
2021/05/09 13:00:40;;;;;;;1.58;1.10;;;28.90;48.80;;;;;;5000730;28;20030;-48
2021/05/09 13:03:06;;;;;;;1.27;1.17;;;29.00;51.20;;;;;;5000229;28;20045;-51